Time;durP1;ratioP1;P1;durP2;ratioP2;P2;SDS_P1;SDS_P2;PMS_P1;PMS_P2;Temp;Humidity;BMP_temperature;BMP_pressure;BME280_temperature;BME280_humidity;BME280_pressure;Samples;Min_cycle;Max_cycle;Signal;HPM_P1;HPM_P2
2024/01/16 00:00:37;;;;;;;4.90;4.50;;;;;;;4.19;48.46;98208.56;6730942;29;20205;-82
2024/01/16 00:04:00;;;;;;;6.73;5.53;;;;;;;5.03;47.06;98211.75;6729744;29;20268;-83
2024/01/16 00:07:22;;;;;;;5.70;5.20;;;;;;;5.06;46.66;98207.84;6729147;29;20720;-81
2024/01/16 00:10:43;;;;;;;8.47;4.97;;;;;;;5.00;46.62;98203.25;6729829;29;20220;-81
2024/01/16 00:14:05;;;;;;;6.47;4.93;;;;;;;4.86;46.95;98206.75;6735618;29;20381;-82
2024/01/16 00:17:26;;;;;;;11.23;4.87;;;;;;;4.89;47.70;98201.88;6730006;29;20237;-81
2024/01/16 00:20:49;;;;;;;6.53;5.40;;;;;;;4.91;47.20;98188.34;6726595;29;20264;-82
2024/01/16 00:24:11;;;;;;;7.90;5.60;;;;;;;4.54;47.68;98197.25;6732262;29;20324;-82
2024/01/16 00:27:32;;;;;;;5.60;5.10;;;;;;;4.32;48.15;98211.44;6731402;29;20609;-81
2024/01/16 00:30:54;;;;;;;5.83;5.17;;;;;;;4.43;47.94;98211.03;6730363;29;20733;-80
2024/01/16 00:34:15;;;;;;;6.73;5.57;;;;;;;4.94;47.01;98188.81;6733970;29;20279;-82
2024/01/16 00:37:39;;;;;;;6.67;5.77;;;;;;;4.84;47.55;98217.63;6734632;29;20318;-82
2024/01/16 00:41:00;;;;;;;9.80;5.33;;;;;;;4.62;47.44;98212.34;6735622;29;20216;-81
2024/01/16 00:44:22;;;;;;;7.93;4.97;;;;;;;4.66;47.78;98221.66;6736622;29;20236;-82
2024/01/16 00:47:44;;;;;;;6.43;4.90;;;;;;;4.97;47.10;98215.16;6734824;29;20772;-82
2024/01/16 00:51:05;;;;;;;7.27;5.53;;;;;;;4.46;47.87;98216.00;6735697;29;20315;-81
2024/01/16 00:54:28;;;;;;;6.13;5.53;;;;;;;4.55;47.71;98214.09;6735680;29;20349;-81
2024/01/16 00:57:50;;;;;;;6.67;5.47;;;;;;;4.73;47.49;98217.25;6734738;29;20372;-81
2024/01/16 01:01:11;;;;;;;6.93;5.20;;;;;;;4.62;47.69;98218.53;6735846;29;20299;-82
2024/01/16 01:04:33;;;;;;;5.20;4.70;;;;;;;4.62;47.43;98191.84;6735732;29;20239;-81
2024/01/16 01:07:56;;;;;;;6.77;5.47;;;;;;;4.72;47.78;98203.06;6735036;29;20354;-82
2024/01/16 01:11:18;;;;;;;6.00;5.20;;;;;;;5.08;47.32;98203.97;6734972;29;20308;-82
2024/01/16 01:14:40;;;;;;;7.83;5.20;;;;;;;4.82;47.01;98200.13;6733998;29;20240;-82
2024/01/16 01:18:01;;;;;;;7.30;5.33;;;;;;;5.27;46.41;98206.09;6733359;29;20648;-82
2024/01/16 01:21:23;;;;;;;5.73;4.97;;;;;;;5.11;47.02;98222.31;6734146;29;20227;-82
2024/01/16 01:24:44;;;;;;;6.67;5.33;;;;;;;5.18;46.69;98211.75;6734062;29;20376;-82
2024/01/16 01:28:07;;;;;;;7.77;5.97;;;;;;;5.11;46.54;98233.00;6733748;29;20784;-81
2024/01/16 01:31:29;;;;;;;5.53;5.03;;;;;;;5.00;46.75;98233.47;6733719;29;20280;-82
2024/01/16 01:34:50;;;;;;;6.77;5.60;;;;;;;5.32;47.10;98240.28;6734435;29;20272;-82
2024/01/16 01:38:12;;;;;;;8.20;5.50;;;;;;;4.91;47.01;98244.44;6734096;29;20392;-82
2024/01/16 01:41:33;;;;;;;6.07;4.80;;;;;;;5.01;47.27;98232.44;6734584;29;20303;-82
2024/01/16 01:44:56;;;;;;;9.97;6.10;;;;;;;5.02;47.25;98236.78;6732958;29;20323;-82
2024/01/16 01:48:18;;;;;;;9.43;5.63;;;;;;;5.18;46.95;98249.97;6727059;29;20230;-82
2024/01/16 01:51:39;;;;;;;8.17;5.77;;;;;;;5.20;46.98;98247.91;6734346;29;20674;-81
2024/01/16 01:55:02;;;;;;;6.03;5.27;;;;;;;5.38;46.52;98260.91;6750343;29;20295;-82
2024/01/16 01:58:24;;;;;;;6.13;4.90;;;;;;;5.45;46.09;98235.94;6759413;29;20234;-82
2024/01/16 02:01:47;;;;;;;8.90;5.37;;;;;;;5.68;45.51;98260.69;6734860;29;20315;-82
2024/01/16 02:05:09;;;;;;;7.30;4.90;;;;;;;5.80;45.31;98248.53;6734333;29;20236;-81
2024/01/16 02:08:30;;;;;;;6.90;5.10;;;;;;;5.86;44.93;98252.28;6738734;29;20224;-82
2024/01/16 02:11:52;;;;;;;7.20;5.87;;;;;;;5.96;44.45;98237.56;6733875;29;20313;-82
2024/01/16 02:15:14;;;;;;;6.10;5.07;;;;;;;5.90;44.54;98257.06;6733448;29;20345;-82
2024/01/16 02:18:37;;;;;;;7.93;5.33;;;;;;;5.79;44.37;98257.50;6732161;29;20322;-82
2024/01/16 02:22:01;;;;;;;6.83;5.03;;;;;;;5.86;44.85;98258.47;6727716;29;20869;-82
2024/01/16 02:25:24;;;;;;;5.77;5.13;;;;;;;5.66;45.55;98260.03;6733362;29;20236;-82
2024/01/16 02:28:45;;;;;;;6.50;5.40;;;;;;;5.79;45.33;98254.03;6731308;29;20232;-80
2024/01/16 02:32:08;;;;;;;8.83;5.33;;;;;;;5.67;45.51;98251.00;6734219;29;20255;-82
2024/01/16 02:35:29;;;;;;;5.80;5.17;;;;;;;5.62;46.10;98261.44;6733978;29;20220;-81
2024/01/16 02:38:51;;;;;;;7.47;6.00;;;;;;;5.51;46.10;98251.22;6733607;29;20327;-82
2024/01/16 02:42:13;;;;;;;6.70;5.30;;;;;;;5.57;45.48;98263.00;6734877;29;20212;-81
2024/01/16 02:45:35;;;;;;;8.27;5.20;;;;;;;5.61;45.91;98262.44;6731376;29;20376;-81
2024/01/16 02:48:56;;;;;;;7.57;4.90;;;;;;;5.41;46.53;98261.38;6733746;29;20281;-82
2024/01/16 02:52:18;;;;;;;6.27;5.23;;;;;;;5.76;45.08;98249.03;6738718;29;20205;-82
2024/01/16 02:55:39;;;;;;;5.37;4.73;;;;;;;5.47;45.81;98259.78;6734200;29;20212;-82
2024/01/16 02:59:02;;;;;;;6.83;4.83;;;;;;;5.16;45.95;98262.69;6731565;29;20319;-82
2024/01/16 03:02:24;;;;;;;7.93;5.10;;;;;;;5.47;45.62;98244.59;6731638;29;20299;-82
2024/01/16 03:05:45;;;;;;;6.87;5.13;;;;;;;5.39;45.31;98260.75;6729854;29;20299;-82
2024/01/16 03:09:07;;;;;;;6.47;4.70;;;;;;;5.32;45.38;98249.09;6731054;29;20334;-82
2024/01/16 03:12:29;;;;;;;6.33;5.23;;;;;;;5.39;45.32;98271.44;6731237;29;20219;-81
2024/01/16 03:15:51;;;;;;;6.33;5.23;;;;;;;5.12;46.15;98265.91;6730712;29;20299;-82
2024/01/16 03:19:13;;;;;;;5.60;4.93;;;;;;;5.07;46.05;98274.47;6732383;29;20652;-81
2024/01/16 03:22:34;;;;;;;6.03;5.30;;;;;;;5.03;45.90;98267.84;6730250;29;20315;-82
2024/01/16 03:25:57;;;;;;;6.70;5.37;;;;;;;4.57;46.88;98244.09;6729376;29;20733;-81
2024/01/16 03:29:18;;;;;;;6.87;4.87;;;;;;;4.78;46.70;98258.41;6730353;29;20440;-82
2024/01/16 03:32:43;;;;;;;5.73;4.73;;;;;;;4.61;47.44;98237.41;6730423;29;20645;-81
2024/01/16 03:36:05;;;;;;;6.10;4.97;;;;;;;5.00;46.42;98254.84;6728120;29;20291;-81
2024/01/16 03:39:27;;;;;;;6.00;5.30;;;;;;;4.99;46.17;98258.53;6728081;29;20271;-81
2024/01/16 03:42:48;;;;;;;6.13;5.40;;;;;;;4.88;46.48;98266.16;6729132;29;20309;-81
2024/01/16 03:46:11;;;;;;;5.83;4.80;;;;;;;4.85;46.70;98269.19;6730185;29;20393;-81
2024/01/16 03:49:34;;;;;;;6.90;5.57;;;;;;;4.77;46.70;98266.63;6730623;29;20379;-81
2024/01/16 03:52:56;;;;;;;10.07;5.40;;;;;;;4.97;46.50;98270.41;6730497;29;20303;-81
2024/01/16 03:56:17;;;;;;;6.93;5.20;;;;;;;4.67;47.05;98261.50;6728470;29;20255;-81
2024/01/16 03:59:39;;;;;;;6.77;5.10;;;;;;;4.52;47.14;98270.50;6731048;29;20327;-81
2024/01/16 04:03:00;;;;;;;7.03;5.20;;;;;;;4.31;47.65;98262.34;6731303;29;20271;-80
2024/01/16 04:06:23;;;;;;;6.33;5.67;;;;;;;4.76;46.33;98263.09;6729592;29;20369;-80
2024/01/16 04:09:44;;;;;;;6.17;5.57;;;;;;;4.58;46.37;98254.59;6730541;29;20240;-81
2024/01/16 04:13:06;;;;;;;8.80;6.33;;;;;;;4.48;47.24;98255.88;6730690;29;20311;-80
2024/01/16 04:16:27;;;;;;;7.07;5.40;;;;;;;4.04;48.08;98250.38;6730717;29;20346;-80
2024/01/16 04:19:49;;;;;;;8.90;5.33;;;;;;;3.87;48.10;98243.50;6731481;29;20381;-80
2024/01/16 04:23:12;;;;;;;10.83;5.50;;;;;;;4.33;47.50;98255.84;6725352;29;20312;-80
2024/01/16 04:26:36;;;;;;;7.23;5.20;;;;;;;3.80;48.20;98205.22;6729141;29;20232;-81
2024/01/16 04:29:58;;;;;;;6.07;5.03;;;;;;;4.20;47.73;98255.56;6729651;29;20295;-81
2024/01/16 04:33:19;;;;;;;8.70;6.53;;;;;;;4.02;47.03;98247.03;6729672;29;20299;-81
2024/01/16 04:36:41;;;;;;;10.10;5.77;;;;;;;3.65;47.94;98256.81;6729002;29;20303;-80
2024/01/16 04:40:05;;;;;;;7.20;5.70;;;;;;;3.90;48.10;98256.47;6729071;29;20263;-81
2024/01/16 04:43:26;;;;;;;9.97;5.47;;;;;;;3.89;47.22;98254.00;6729286;29;20216;-81
2024/01/16 04:46:48;;;;;;;6.00;5.37;;;;;;;3.55;47.57;98259.66;6730842;29;20665;-81
2024/01/16 04:50:10;;;;;;;7.03;5.57;;;;;;;3.30;48.32;98262.66;6730690;29;20253;-80
2024/01/16 04:53:32;;;;;;;7.73;5.97;;;;;;;3.27;49.02;98266.47;6724685;29;20295;-81
2024/01/16 04:56:54;;;;;;;6.53;4.93;;;;;;;2.95;49.34;98271.91;6728253;29;20376;-80
2024/01/16 05:00:17;;;;;;;6.43;5.77;;;;;;;3.23;49.24;98274.97;6727785;29;20216;-80
2024/01/16 05:03:38;;;;;;;9.37;5.00;;;;;;;3.50;48.28;98279.88;6729103;29;20711;-81
2024/01/16 05:07:00;;;;;;;7.57;4.73;;;;;;;3.19;48.32;98266.50;6728576;29;20364;-80
2024/01/16 05:10:22;;;;;;;7.97;5.27;;;;;;;3.39;48.31;98270.44;6729680;29;20630;-80
2024/01/16 05:13:45;;;;;;;7.87;5.27;;;;;;;3.49;48.24;98262.22;6727152;29;20208;-81
2024/01/16 05:17:06;;;;;;;9.33;5.83;;;;;;;3.89;47.27;98244.16;6734712;29;20323;-80
2024/01/16 05:20:29;;;;;;;6.60;5.13;;;;;;;3.75;47.92;98254.72;6758482;29;20302;-80
2024/01/16 05:23:50;;;;;;;9.43;5.47;;;;;;;3.75;47.98;98238.75;6759342;29;20214;-80
2024/01/16 05:27:11;;;;;;;6.77;5.60;;;;;;;3.66;47.66;98248.63;6734063;29;20349;-80
2024/01/16 05:30:34;;;;;;;7.33;5.50;;;;;;;3.48;48.21;98245.38;6734112;29;20695;-80
2024/01/16 05:33:56;;;;;;;8.00;6.03;;;;;;;3.50;47.72;98234.56;6730009;29;20352;-80
2024/01/16 05:37:17;;;;;;;9.13;6.00;;;;;;;3.31;47.46;98225.16;6731974;29;20319;-80
2024/01/16 05:40:39;;;;;;;8.20;5.73;;;;;;;3.26;48.07;98235.50;6733728;29;20729;-81
2024/01/16 05:44:03;;;;;;;5.67;5.13;;;;;;;2.91;49.43;98227.16;6733715;29;20233;-79
2024/01/16 05:47:27;;;;;;;6.20;5.60;;;;;;;3.06;48.42;98222.75;6733347;29;20255;-79
2024/01/16 05:50:49;;;;;;;8.17;5.47;;;;;;;2.37;50.30;98220.78;6732500;29;20267;-80
2024/01/16 05:54:10;;;;;;;7.80;6.00;;;;;;;2.94;49.72;98227.66;6732823;29;20339;-79
2024/01/16 05:57:33;;;;;;;7.03;6.27;;;;;;;3.01;49.36;98206.50;6732560;29;20372;-79
2024/01/16 06:00:55;;;;;;;8.73;5.70;;;;;;;3.25;48.36;98223.19;6731296;29;20208;-79
2024/01/16 06:04:19;;;;;;;7.40;5.30;;;;;;;3.12;48.86;98222.09;6733699;29;20578;-80
2024/01/16 06:07:40;;;;;;;7.17;5.37;;;;;;;3.18;48.34;98227.56;6733861;29;20239;-80
2024/01/16 06:11:02;;;;;;;7.27;5.77;;;;;;;3.24;48.31;98221.53;6733160;29;20204;-80
2024/01/16 06:14:23;;;;;;;6.93;4.80;;;;;;;3.31;47.95;98216.34;6733394;29;20292;-79
2024/01/16 06:17:45;;;;;;;7.97;5.90;;;;;;;3.12;48.49;98212.28;6733483;29;20384;-79
2024/01/16 06:21:08;;;;;;;8.43;5.70;;;;;;;2.98;48.66;98213.00;6733924;29;20228;-80
2024/01/16 06:24:36;;;;;;;8.37;5.47;;;;;;;3.07;48.90;98225.25;6725178;29;20253;-80
2024/01/16 06:27:57;;;;;;;7.40;6.07;;;;;;;3.21;49.14;98215.72;6730784;29;20228;-79
2024/01/16 06:31:19;;;;;;;7.77;6.03;;;;;;;2.84;49.14;98228.84;6731802;29;20299;-80
2024/01/16 06:34:40;;;;;;;6.63;5.57;;;;;;;3.23;49.10;98225.19;6732221;29;20338;-80
2024/01/16 06:38:04;;;;;;;10.07;5.37;;;;;;;3.14;48.15;98220.91;6733208;29;20319;-81
2024/01/16 06:41:25;;;;;;;8.87;7.97;;;;;;;2.89;49.03;98222.00;6732935;29;20879;-81
2024/01/16 06:44:47;;;;;;;11.00;8.57;;;;;;;2.63;49.24;98213.44;6729487;29;20300;-81
2024/01/16 06:48:08;;;;;;;8.17;5.90;;;;;;;3.14;48.48;98218.25;6729278;29;20315;-80
2024/01/16 06:51:30;;;;;;;7.00;5.50;;;;;;;2.99;49.23;98214.66;6732738;29;20303;-79
2024/01/16 06:54:53;;;;;;;6.20;5.60;;;;;;;2.49;49.90;98227.41;6724672;29;20288;-81
2024/01/16 06:58:14;;;;;;;7.60;5.57;;;;;;;3.39;48.44;98214.47;6728350;29;20308;-81
2024/01/16 07:01:36;;;;;;;6.30;5.30;;;;;;;3.56;47.83;98231.19;6734166;29;20307;-81
2024/01/16 07:04:57;;;;;;;7.07;6.07;;;;;;;3.60;47.52;98229.84;6733088;29;20323;-81
2024/01/16 07:08:19;;;;;;;6.87;4.87;;;;;;;3.57;47.43;98224.84;6744708;29;20315;-81
2024/01/16 07:11:42;;;;;;;9.93;6.10;;;;;;;2.95;48.14;98234.63;6736109;29;20758;-81
2024/01/16 07:15:04;;;;;;;11.07;5.10;;;;;;;3.02;48.33;98234.78;6733031;29;20584;-81
2024/01/16 07:18:27;;;;;;;8.60;5.20;;;;;;;3.04;48.44;98222.97;6731492;29;20316;-81
2024/01/16 07:21:49;;;;;;;9.67;5.20;;;;;;;3.56;47.02;98234.72;6731910;29;20305;-80
2024/01/16 07:25:10;;;;;;;8.27;5.67;;;;;;;2.99;48.56;98235.94;6732687;29;20268;-81
2024/01/16 07:28:33;;;;;;;7.13;5.33;;;;;;;2.76;49.03;98229.69;6735466;29;20228;-80
2024/01/16 07:31:55;;;;;;;5.30;4.70;;;;;;;3.22;47.58;98223.56;6741628;29;20205;-80
2024/01/16 07:35:16;;;;;;;8.33;4.93;;;;;;;2.72;47.17;98228.38;6735210;29;20684;-82
2024/01/16 07:38:38;;;;;;;15.33;8.23;;;;;;;2.39;49.13;98234.75;6732887;29;20303;-82
2024/01/16 07:41:59;;;;;;;9.80;5.33;;;;;;;2.33;48.88;98219.47;6736227;29;20224;-84
2024/01/16 07:45:23;;;;;;;14.73;5.73;;;;;;;3.55;45.69;98232.22;6726578;29;20268;-83
2024/01/16 07:48:45;;;;;;;6.87;5.50;;;;;;;3.57;45.44;98223.03;6730020;29;20252;-82
2024/01/16 07:52:07;;;;;;;8.80;5.13;;;;;;;4.01;45.09;98213.38;6727698;29;20257;-80
2024/01/16 07:55:28;;;;;;;6.80;5.37;;;;;;;3.41;45.58;98225.78;6727215;29;20274;-82
2024/01/16 07:58:50;;;;;;;5.03;4.63;;;;;;;3.28;46.46;98230.84;6731356;29;20239;-80
2024/01/16 08:02:13;;;;;;;6.40;4.40;;;;;;;3.52;45.77;98217.41;6730897;29;20315;-81
2024/01/16 08:05:34;;;;;;;6.73;5.00;;;;;;;2.81;45.82;98230.03;6728424;29;20272;-81
2024/01/16 08:08:56;;;;;;;5.50;5.00;;;;;;;2.74;46.75;98221.06;6728929;29;20375;-80
2024/01/16 08:12:17;;;;;;;10.30;6.07;;;;;;;3.90;44.97;98213.81;6730112;29;20252;-82
2024/01/16 08:15:39;;;;;;;5.43;4.10;;;;;;;4.10;44.00;98232.81;6729499;29;20640;-82
2024/01/16 08:19:03;;;;;;;4.50;3.80;;;;;;;4.25;42.89;98202.53;6730358;29;20230;-83
2024/01/16 08:22:24;;;;;;;6.17;4.23;;;;;;;4.04;43.10;98234.38;6723914;29;20225;-81
2024/01/16 08:25:46;;;;;;;5.73;4.53;;;;;;;4.11;43.49;98200.66;6723754;29;20239;-83
2024/01/16 08:29:07;;;;;;;4.80;4.40;;;;;;;4.24;43.01;98227.53;6729406;29;20252;-82
2024/01/16 08:32:29;;;;;;;4.70;4.20;;;;;;;4.51;42.96;98226.13;6727952;29;20215;-83
2024/01/16 08:35:52;;;;;;;6.13;4.60;;;;;;;4.17;43.03;98241.78;6731149;29;20708;-83
2024/01/16 08:39:13;;;;;;;7.93;4.60;;;;;;;4.43;43.33;98227.03;6738262;29;20233;-83
2024/01/16 08:42:35;;;;;;;7.10;4.97;;;;;;;4.01;42.88;98233.91;6736717;29;20223;-82
2024/01/16 08:45:56;;;;;;;6.23;4.20;;;;;;;4.07;43.05;98241.22;6730444;29;20642;-82
2024/01/16 08:49:18;;;;;;;6.10;4.20;;;;;;;3.15;43.95;98205.75;6737848;29;20383;-82
2024/01/16 08:52:41;;;;;;;4.73;4.10;;;;;;;3.32;44.76;98241.97;6733426;29;20688;-82
2024/01/16 08:56:06;;;;;;;4.63;4.23;;;;;;;4.22;43.39;98250.91;6734270;29;20204;-82
2024/01/16 08:59:28;;;;;;;4.57;4.20;;;;;;;4.01;44.76;98248.06;6725697;29;20597;-82
2024/01/16 09:02:51;;;;;;;6.23;4.70;;;;;;;4.60;43.55;98257.09;6734586;29;20734;-84
2024/01/16 09:06:12;;;;;;;5.07;4.30;;;;;;;4.22;43.02;98266.91;6736065;29;20596;-83
2024/01/16 09:09:35;;;;;;;6.07;4.23;;;;;;;4.82;42.14;98250.84;6737787;29;20474;-82
2024/01/16 09:12:56;;;;;;;4.50;4.10;;;;;;;4.97;41.87;98249.88;6735973;29;20330;-81
2024/01/16 09:16:18;;;;;;;6.17;4.53;;;;;;;3.93;42.97;98260.63;6737010;29;20270;-82
2024/01/16 09:19:40;;;;;;;6.27;4.60;;;;;;;4.91;42.35;98242.59;6735340;29;20407;-82
2024/01/16 09:23:01;;;;;;;6.77;4.80;;;;;;;5.36;42.18;98242.38;6735135;29;20694;-81
2024/01/16 09:26:25;;;;;;;5.00;4.53;;;;;;;5.04;41.19;98256.16;6734368;29;20228;-84
2024/01/16 09:29:46;;;;;;;7.17;4.07;;;;;;;5.63;39.89;98246.22;6736079;29;20380;-81
2024/01/16 09:33:10;;;;;;;6.03;4.10;;;;;;;5.36;40.67;98260.28;6735402;29;20253;-79
2024/01/16 09:36:31;;;;;;;6.33;4.13;;;;;;;4.86;40.61;98265.50;6734705;29;20606;-80
2024/01/16 09:39:53;;;;;;;6.33;4.33;;;;;;;4.83;40.91;98228.50;6737575;29;20216;-81
2024/01/16 09:43:16;;;;;;;3.80;3.40;;;;;;;5.18;41.07;98238.47;6741900;29;20209;-80
2024/01/16 09:46:39;;;;;;;4.97;4.27;;;;;;;5.49;39.81;98258.59;6733651;29;20312;-79
2024/01/16 09:50:02;;;;;;;4.93;4.40;;;;;;;4.63;40.60;98230.88;6736393;29;20205;-81
2024/01/16 09:53:24;;;;;;;4.70;4.30;;;;;;;4.08;42.52;98264.19;6734174;29;20747;-82
2024/01/16 09:56:49;;;;;;;7.00;4.57;;;;;;;4.65;42.55;98244.84;6735708;29;20745;-80
2024/01/16 10:00:13;;;;;;;4.53;4.07;;;;;;;4.62;40.63;98255.91;6733642;29;20213;-83
2024/01/16 10:03:35;;;;;;;5.27;4.37;;;;;;;5.16;40.91;98252.00;6728417;29;20262;-83
2024/01/16 10:06:57;;;;;;;5.53;4.17;;;;;;;4.63;40.30;98249.56;6733439;29;20295;-81
2024/01/16 10:10:20;;;;;;;5.20;4.00;;;;;;;5.33;40.68;98261.47;6732917;29;20243;-80
2024/01/16 10:13:42;;;;;;;4.37;3.70;;;;;;;5.88;39.29;98243.06;6731744;29;20302;-87
2024/01/16 10:17:09;;;;;;;4.77;4.00;;;;;;;6.24;38.54;98227.78;6730986;29;20245;-81
2024/01/16 10:20:34;;;;;;;4.17;3.87;;;;;;;6.18;38.28;98228.53;6738136;29;20211;-81
2024/01/16 10:23:56;;;;;;;4.90;4.40;;;;;;;5.61;38.61;98224.19;6733223;29;20683;-84
2024/01/16 10:27:18;;;;;;;5.27;4.60;;;;;;;6.64;38.05;98231.59;6734091;29;20248;-82
2024/01/16 10:30:39;;;;;;;6.67;4.30;;;;;;;6.56;38.43;98211.19;6735121;29;20268;-80
2024/01/16 10:34:03;;;;;;;5.13;4.00;;;;;;;6.21;38.23;98211.28;6735693;29;20657;-82
2024/01/16 10:37:25;;;;;;;9.60;5.30;;;;;;;6.09;40.86;98207.47;6730930;29;20239;-84
2024/01/16 10:40:46;;;;;;;55.33;23.67;;;;;;;6.46;41.02;98177.72;6726474;29;20637;-82
2024/01/16 10:44:08;;;;;;;269.13;63.57;;;;;;;6.89;40.85;98200.69;6732440;29;20361;-81
2024/01/16 10:47:30;;;;;;;14.60;6.33;;;;;;;7.07;39.42;98207.19;6726788;29;20249;-83
2024/01/16 10:50:53;;;;;;;5.90;4.60;;;;;;;7.71;37.57;98192.41;6731107;29;20590;-82
2024/01/16 10:54:15;;;;;;;4.37;4.00;;;;;;;7.63;35.93;98192.59;6731742;29;20300;-86
2024/01/16 10:57:40;;;;;;;6.80;4.60;;;;;;;7.96;36.32;98200.75;6731171;29;20225;-84
2024/01/16 11:01:04;;;;;;;6.07;5.40;;;;;;;8.55;36.82;98207.84;6724265;29;20281;-81
2024/01/16 11:04:26;;;;;;;5.33;4.30;;;;;;;8.34;37.10;98193.78;6730766;29;20222;-81
2024/01/16 11:07:51;;;;;;;6.27;4.17;;;;;;;8.44;36.55;98178.09;6731188;29;20245;-85
2024/01/16 11:11:14;;;;;;;9.10;4.20;;;;;;;8.24;35.57;98182.66;6733170;29;20264;-83
2024/01/16 11:14:36;;;;;;;5.10;3.93;;;;;;;7.59;35.50;98174.41;6742612;29;20275;-85
2024/01/16 11:17:57;;;;;;;5.50;4.17;;;;;;;8.01;36.59;98150.78;6722861;29;20259;-80
2024/01/16 11:21:19;;;;;;;6.13;3.90;;;;;;;8.72;36.46;98155.34;6732796;29;20310;-81
2024/01/16 11:24:42;;;;;;;4.10;3.70;;;;;;;8.76;33.38;98151.22;6732483;29;20722;-82
2024/01/16 11:28:11;;;;;;;4.57;3.90;;;;;;;8.27;33.73;98153.53;6731627;29;20239;-82
2024/01/16 11:31:34;;;;;;;4.33;3.50;;;;;;;9.13;33.66;98128.97;6736051;29;20233;-83
2024/01/16 11:34:56;;;;;;;4.13;3.70;;;;;;;8.91;35.04;98129.47;6727820;29;20216;-81
2024/01/16 11:38:19;;;;;;;7.37;4.43;;;;;;;7.93;34.55;98131.34;6734796;29;20255;-80
2024/01/16 11:41:52;;;;;;;12.13;7.60;;;;;;;8.63;34.02;98118.16;6727175;29;20208;-83
2024/01/16 11:45:54;;;;;;;7.73;3.70;;;;;;;7.77;35.02;98119.16;6727424;29;20204;-79
2024/01/16 11:49:19;;;;;;;5.80;3.73;;;;;;;9.37;33.25;98104.03;6724954;29;20247;-81
2024/01/16 11:52:42;;;;;;;4.97;3.60;;;;;;;8.89;33.77;98093.91;6731548;29;20696;-81
2024/01/16 11:56:36;;;;;;;7.27;4.80;;;;;;;9.50;33.02;98079.78;6731479;29;20209;-81
2024/01/16 12:00:07;;;;;;;26.57;15.33;;;;;;;9.02;34.11;98080.44;6732055;29;20295;-80
2024/01/16 12:03:29;;;;;;;6.37;4.47;;;;;;;9.15;33.70;98073.13;6731156;29;20209;-81
2024/01/16 12:06:58;;;;;;;7.00;3.80;;;;;;;9.50;32.55;98058.25;6733399;29;20697;-81
2024/01/16 12:10:20;;;;;;;5.70;3.60;;;;;;;9.44;32.54;98042.94;6718458;29;20353;-81
2024/01/16 12:13:42;;;;;;;5.20;4.10;;;;;;;10.02;31.70;98066.78;6732698;29;20358;-81
2024/01/16 12:17:11;;;;;;;6.20;3.77;;;;;;;9.14;33.80;98066.09;6734868;29;20281;-81
2024/01/16 12:20:34;;;;;;;4.80;3.67;;;;;;;9.03;33.56;98062.22;6739496;29;20588;-86
2024/01/16 12:23:56;;;;;;;4.03;3.57;;;;;;;9.78;33.10;98059.50;6729745;29;20344;-85
2024/01/16 12:27:17;;;;;;;3.63;3.00;;;;;;;10.03;31.99;98049.59;6728215;29;20713;-80
2024/01/16 12:30:39;;;;;;;5.17;3.10;;;;;;;10.02;32.12;98039.00;6734523;29;20245;-80
2024/01/16 12:34:07;;;;;;;5.80;3.43;;;;;;;9.87;31.76;98022.38;6743228;29;20253;-79
2024/01/16 12:37:29;;;;;;;3.83;3.40;;;;;;;10.33;31.35;98017.44;6736148;29;20236;-82
2024/01/16 12:40:52;;;;;;;4.50;3.23;;;;;;;10.45;30.95;98019.16;6731537;29;20209;-80
2024/01/16 12:44:14;;;;;;;4.07;3.23;;;;;;;10.43;30.50;98005.09;6731311;29;20215;-82
2024/01/16 12:47:36;;;;;;;4.20;2.83;;;;;;;10.79;30.00;98004.25;6733999;29;20232;-81
2024/01/16 12:51:04;;;;;;;4.63;2.50;;;;;;;10.65;30.06;98003.59;6734786;29;20216;-82
2024/01/16 12:54:25;;;;;;;4.27;2.87;;;;;;;10.34;30.10;98016.38;6727855;29;20204;-81
2024/01/16 12:57:47;;;;;;;4.03;2.70;;;;;;;10.67;30.01;97990.72;6735558;29;20623;-81
2024/01/16 13:01:25;;;;;;;4.53;2.80;;;;;;;10.65;29.42;98011.69;6732303;29;20235;-81
2024/01/16 13:04:47;;;;;;;3.20;2.90;;;;;;;10.31;29.31;98001.50;6734707;29;20255;-82
2024/01/16 13:08:10;;;;;;;5.73;2.97;;;;;;;10.82;29.49;98001.97;6734204;29;20237;-82
2024/01/16 13:11:32;;;;;;;2.93;2.73;;;;;;;11.04;28.96;98013.09;6735222;29;20239;-82
2024/01/16 13:14:54;;;;;;;5.97;2.87;;;;;;;11.11;28.34;97984.16;6732990;29;20255;-81
2024/01/16 13:18:20;;;;;;;3.30;2.97;;;;;;;10.67;28.96;97987.19;6736271;29;20423;-81
2024/01/16 13:21:41;;;;;;;4.03;3.00;;;;;;;9.83;30.33;97953.84;6735519;29;20220;-81
2024/01/16 13:25:05;;;;;;;7.80;2.83;;;;;;;10.09;30.07;97977.91;6729822;29;20217;-82
2024/01/16 13:28:27;;;;;;;3.90;2.80;;;;;;;10.39;29.28;97976.13;6729749;29;20614;-81
2024/01/16 13:31:49;;;;;;;3.70;2.80;;;;;;;9.63;30.51;97959.41;6733820;29;20666;-81
2024/01/16 13:35:11;;;;;;;6.23;2.77;;;;;;;10.00;29.71;97969.25;6728422;29;20219;-82
2024/01/16 13:38:33;;;;;;;4.20;2.70;;;;;;;9.86;29.95;97953.44;6728441;29;20240;-81
2024/01/16 13:41:56;;;;;;;3.20;2.50;;;;;;;10.16;29.39;97947.13;6733638;29;20627;-82
2024/01/16 13:45:18;;;;;;;3.40;2.70;;;;;;;9.88;28.97;97948.63;6734563;29;20227;-82
2024/01/16 13:48:40;;;;;;;7.60;3.47;;;;;;;9.65;30.16;97954.66;6732983;29;20236;-82
2024/01/16 13:52:03;;;;;;;3.23;2.97;;;;;;;10.18;28.30;97946.91;6733817;29;20217;-81
2024/01/16 13:55:24;;;;;;;11.07;5.07;;;;;;;9.07;30.15;97932.75;6732385;29;25454;-81
2024/01/16 13:58:47;;;;;;;4.63;2.93;;;;;;;9.45;29.45;97955.84;6732491;29;20733;-81
2024/01/16 14:02:09;;;;;;;5.87;3.07;;;;;;;9.63;28.89;97962.09;6733688;29;20294;-81
2024/01/16 14:05:31;;;;;;;2.80;2.60;;;;;;;9.95;28.35;97954.78;6730433;29;20220;-81
2024/01/16 14:08:52;;;;;;;3.60;3.30;;;;;;;9.69;28.83;97946.97;6724145;29;20757;-81
2024/01/16 14:12:14;;;;;;;8.97;3.80;;;;;;;9.57;28.43;97952.22;6732828;29;20248;-82
2024/01/16 14:15:37;;;;;;;5.93;3.10;;;;;;;9.24;29.76;97938.19;6732652;29;20216;-81
2024/01/16 14:18:58;;;;;;;4.97;3.40;;;;;;;9.70;29.21;97932.44;6732748;29;20684;-81
2024/01/16 14:22:20;;;;;;;3.93;3.13;;;;;;;8.90;30.30;97936.97;6733173;29;20312;-81
2024/01/16 14:25:41;;;;;;;3.30;3.10;;;;;;;8.78;29.80;97936.00;6733288;29;20371;-82
2024/01/16 14:29:03;;;;;;;6.33;3.40;;;;;;;9.01;29.30;97930.91;6732759;29;20232;-82
2024/01/16 14:32:26;;;;;;;4.43;3.27;;;;;;;8.94;29.46;97925.56;6732667;29;20245;-81
2024/01/16 14:35:48;;;;;;;3.03;2.80;;;;;;;9.00;29.91;97948.91;6733818;29;20342;-81
2024/01/16 14:39:13;;;;;;;5.70;2.90;;;;;;;8.61;30.50;97942.91;6735817;29;20361;-82
2024/01/16 14:42:34;;;;;;;3.60;3.30;;;;;;;8.32;31.00;97940.75;6736973;29;20219;-82
2024/01/16 14:45:58;;;;;;;4.27;3.00;;;;;;;8.67;30.39;97926.75;6732209;29;20215;-82
2024/01/16 14:49:21;;;;;;;4.17;2.90;;;;;;;8.64;30.14;97937.94;6740763;29;20256;-82
2024/01/16 14:52:43;;;;;;;5.57;3.30;;;;;;;8.41;30.71;97924.19;6726634;29;20219;-81
2024/01/16 14:56:06;;;;;;;4.07;3.67;;;;;;;8.68;30.50;97941.84;6725091;29;20751;-81
2024/01/16 14:59:27;;;;;;;7.97;3.70;;;;;;;8.56;31.66;97921.22;6729907;29;20238;-82
2024/01/16 15:02:49;;;;;;;3.30;3.00;;;;;;;8.50;31.07;97930.97;6732434;29;20351;-82
2024/01/16 15:06:12;;;;;;;3.47;3.10;;;;;;;8.50;31.07;97927.47;6732091;29;20344;-84
2024/01/16 15:09:37;;;;;;;5.97;3.10;;;;;;;8.36;31.47;97920.50;6718227;29;20230;-82
2024/01/16 15:12:58;;;;;;;7.00;3.20;;;;;;;8.16;32.67;97919.69;6730334;29;20679;-81
2024/01/16 15:16:20;;;;;;;5.80;3.17;;;;;;;8.01;33.62;97928.00;6729955;29;20294;-81
2024/01/16 15:19:41;;;;;;;7.03;3.37;;;;;;;7.75;33.87;97935.25;6727936;29;20258;-81
2024/01/16 15:23:04;;;;;;;6.67;2.97;;;;;;;7.74;33.77;97923.72;6732075;29;20256;-81
2024/01/16 15:26:26;;;;;;;4.30;3.17;;;;;;;6.35;35.88;97940.00;6725856;29;20245;-82
2024/01/16 15:29:48;;;;;;;5.27;3.17;;;;;;;6.84;35.52;97948.63;6705881;29;20723;-82
2024/01/16 15:33:09;;;;;;;4.27;3.77;;;;;;;7.07;35.37;97944.53;6716941;29;20229;-82
2024/01/16 15:36:31;;;;;;;6.07;3.77;;;;;;;7.21;34.83;97954.25;6730419;29;20734;-82
2024/01/16 15:39:54;;;;;;;8.47;4.00;;;;;;;6.87;35.71;97937.50;6725185;29;20285;-80
2024/01/16 15:43:15;;;;;;;4.40;4.07;;;;;;;6.86;35.85;97950.06;6726947;29;20803;-81
2024/01/16 15:46:54;;;;;;;6.87;4.47;;;;;;;6.76;36.17;97924.69;6729816;29;20237;-82
2024/01/16 15:50:16;;;;;;;5.50;4.70;;;;;;;6.33;37.58;97936.69;6731148;29;20348;-82
2024/01/16 15:53:38;;;;;;;7.83;4.73;;;;;;;6.09;38.88;97927.34;6727912;29;20249;-81
2024/01/16 15:57:00;;;;;;;8.77;4.87;;;;;;;6.08;39.70;97931.00;6727292;29;20229;-80
2024/01/16 16:00:23;;;;;;;5.37;4.77;;;;;;;6.07;39.49;97932.03;6726359;29;20245;-82
2024/01/16 16:03:44;;;;;;;5.33;4.70;;;;;;;5.90;39.86;97927.22;6733037;29;20240;-81